Aeroporto :
LOGIN :

Iscrizione | Disclaimer

   EN    FR    IT 

 










Sommario :    VFR   VFR Marginale   IFR   IFR Intensivo   IFR Molto Intensivo
Visibilità : 
Base nubi : 
>= 8 km
>= 3000ft
5 / 8 km
1000 / 3000 ft
1500m / 5 km
500 / 1000 ft
800 / 1500m
200 / 500 ft
< 800m
< 200 ft
Simboli :   Temporali  Nebbia  Neve Forte  Precipitazioni Forti  Vento > 20 kt
SIGMETs :   Varie  Temporali  Ghiacco  Turbolenza  Onda orograficha  Ceneri Vulcaniche






- Altitudine del aeroporto : 202 ft
- Codice IATA : LGW


EGKK - London Gatwick

ULTIMO METAR :
  • 230150Z 06006KT 9999 BKN027 07/07 Q0990

METARs OBSOLETI :
  • 230120Z 06006KT 9999 FEW029 07/07 Q0990
  • 230050Z 06006KT CAVOK 07/06 Q0991
  • 230020Z 07006KT CAVOK 07/06 Q0991
  • 222350Z 07007KT CAVOK 07/07 Q0991
  • 222320Z 07007KT CAVOK 07/06 Q0991

TAF AMD TAF EGKK
Valido dal 23 a 02 ore il 24 a 06 ore UTC


230203Z 2302/2406 10010KT 9999 SCT030
BECMG 2302/2305 BKN013
TEMPO 2302/2318 7000 -RADZ
PROB40
TEMPO 2302/2311 4000 RADZ BKN007
BECMG 2314/2317 SCT030
BECMG 2318/2321 8000
BECMG 2321/2324 04005KT 3000 BR
PROB30
TEMPO 2401/2406 1400 RADZ BKN004



MetMap, La meteo Aeronautica in un colpo d'occhio ! - Copyright ORBIFLY Dicembre 2007 - Disclaimer

ORBIFLY MET'MAP TEAM :

Programmazione e sviluppo : Alexandra Zaïnal
Concezione e sviluppo : Baudouin d'Aumeries
Co-Programmazione e sviluppo : Marc-Olivier Méhu
Supporto tecnico e logistico : Manuel Goepfert
Aiuto per la traduzione : Arnaldo La Scala

Contatto : metmap@orbifly.com




FONTI E CREDITI :

   NOAA